createdAt,value
2023-09-22T00:01:03.102Z,14.80
2023-09-22T00:03:31.041Z,14.80
2023-09-22T00:05:58.499Z,16.60
2023-09-22T00:08:26.001Z,14.70
2023-09-22T00:10:55.089Z,14.60
2023-09-22T00:13:22.307Z,14.60
2023-09-22T00:15:49.392Z,13.20
2023-09-22T00:18:16.986Z,16.00
2023-09-22T00:20:44.124Z,14.30
2023-09-22T00:23:11.323Z,16.10
2023-09-22T00:25:38.513Z,14.40
2023-09-22T00:28:06.024Z,15.80
2023-09-22T00:30:34.828Z,14.10
2023-09-22T00:33:02.938Z,15.90
2023-09-22T00:35:30.370Z,14.00
2023-09-22T00:37:57.535Z,14.50
2023-09-22T00:40:24.886Z,14.50
2023-09-22T00:43:08.169Z,14.70
2023-09-22T00:45:45.279Z,13.90
2023-09-22T00:48:23.047Z,14.20
2023-09-22T00:50:55.414Z,13.80
2023-09-22T00:53:28.813Z,13.80
2023-09-22T00:55:56.998Z,13.80
2023-09-22T00:58:24.694Z,13.80
2023-09-22T01:00:53.604Z,15.10
2023-09-22T01:03:21.049Z,13.70
2023-09-22T01:05:48.602Z,14.40
2023-09-22T01:08:16.215Z,14.40
2023-09-22T01:10:46.530Z,15.20
2023-09-22T01:13:14.706Z,15.40
2023-09-22T01:15:44.128Z,13.60
2023-09-22T01:18:14.692Z,14.70
2023-09-22T01:20:44.944Z,14.10
2023-09-22T01:23:13.695Z,13.50
2023-09-22T01:25:45.025Z,14.70
2023-09-22T01:28:13.672Z,13.50
2023-09-22T01:30:42.366Z,13.50
2023-09-22T01:33:10.991Z,14.00
2023-09-22T01:35:38.140Z,13.50
2023-09-22T01:38:28.403Z,15.20
2023-09-22T01:40:55.786Z,13.40
2023-09-22T01:43:22.810Z,14.60
2023-09-22T01:45:50.311Z,13.40
2023-09-22T01:48:17.623Z,14.70
2023-09-22T01:50:44.758Z,13.40
2023-09-22T01:53:12.514Z,14.60
2023-09-22T01:55:42.420Z,13.40
2023-09-22T01:58:10.371Z,13.40
2023-09-22T02:00:38.115Z,14.60
2023-09-22T02:03:07.365Z,13.90
2023-09-22T02:05:35.461Z,13.40
2023-09-22T02:08:02.657Z,14.40
2023-09-22T02:10:30.097Z,13.40
2023-09-22T02:12:57.259Z,13.40
2023-09-22T02:15:24.341Z,13.40
2023-09-22T02:17:51.400Z,13.40
2023-09-22T02:20:24.363Z,13.40
2023-09-22T02:22:56.646Z,13.40
2023-09-22T02:25:25.452Z,13.40
2023-09-22T02:27:56.425Z,13.60
2023-09-22T02:30:24.983Z,13.40
2023-09-22T02:32:55.696Z,13.50
2023-09-22T02:35:23.606Z,13.40
2023-09-22T02:37:50.790Z,14.50
2023-09-22T02:40:18.905Z,13.50
2023-09-22T02:42:46.009Z,13.50
2023-09-22T02:45:14.330Z,13.50
2023-09-22T02:47:43.119Z,14.50
2023-09-22T02:50:17.162Z,13.60
2023-09-22T02:52:45.837Z,13.60
2023-09-22T02:55:14.998Z,13.60
2023-09-22T02:57:44.115Z,13.70
2023-09-22T03:00:22.622Z,13.70
2023-09-22T03:02:51.161Z,13.70
2023-09-22T03:05:19.698Z,13.70
2023-09-22T03:07:53.795Z,13.70
2023-09-22T03:10:22.975Z,15.60
2023-09-22T03:12:54.287Z,13.60
2023-09-22T03:15:22.649Z,15.90
2023-09-22T03:17:50.063Z,13.70
2023-09-22T03:20:18.737Z,13.70
2023-09-22T03:22:47.390Z,13.70
2023-09-22T03:25:15.945Z,13.80
2023-09-22T03:27:44.415Z,13.70
2023-09-22T03:30:13.916Z,14.90
2023-09-22T03:32:43.182Z,13.70
2023-09-22T03:35:14.921Z,15.30
2023-09-22T03:37:42.105Z,14.40
2023-09-22T03:40:24.503Z,13.90
2023-09-22T03:42:52.216Z,13.90
2023-09-22T03:45:20.219Z,13.40
2023-09-22T03:47:48.376Z,15.30
2023-09-22T03:50:15.917Z,14.10
2023-09-22T03:52:44.350Z,15.00
2023-09-22T03:55:13.028Z,15.10
2023-09-22T03:57:41.733Z,14.20
2023-09-22T04:00:18.861Z,14.30
2023-09-22T04:02:48.014Z,14.30
2023-09-22T04:05:15.600Z,14.30
2023-09-22T04:07:43.097Z,14.30
2023-09-22T04:10:12.026Z,14.60
2023-09-22T04:12:39.191Z,14.20
2023-09-22T04:15:07.728Z,15.90
2023-09-22T04:17:35.703Z,12.40
2023-09-22T04:20:08.551Z,15.20
2023-09-22T04:22:36.733Z,14.10
2023-09-22T04:25:10.972Z,14.30
2023-09-22T04:27:47.548Z,14.10
2023-09-22T04:30:18.155Z,14.10
2023-09-22T04:32:45.658Z,15.20
2023-09-22T04:35:13.710Z,15.40
2023-09-22T04:37:41.829Z,15.20
2023-09-22T04:40:24.471Z,15.00
2023-09-22T04:42:54.954Z,13.90
2023-09-22T04:45:23.052Z,13.80
2023-09-22T04:47:53.465Z,13.80
2023-09-22T04:50:22.360Z,13.80
2023-09-22T04:52:50.851Z,13.70
2023-09-22T04:55:18.513Z,15.70
2023-09-22T04:57:45.832Z,13.70
2023-09-22T05:00:17.695Z,15.70
2023-09-22T05:02:45.436Z,13.60
2023-09-22T05:05:13.420Z,13.60
2023-09-22T05:07:40.681Z,14.60
2023-09-22T05:10:08.456Z,15.20
2023-09-22T05:12:37.149Z,13.60
2023-09-22T05:15:05.933Z,13.60
2023-09-22T05:17:33.679Z,13.60
2023-09-22T05:20:00.689Z,15.00
2023-09-22T05:22:27.790Z,15.50
2023-09-22T05:24:54.788Z,13.80
2023-09-22T05:27:21.807Z,13.50
2023-09-22T05:29:53.061Z,13.50
2023-09-22T05:32:20.416Z,13.60
2023-09-22T05:34:47.420Z,15.60
2023-09-22T05:37:14.901Z,14.60
2023-09-22T05:39:42.901Z,15.90
2023-09-22T05:42:12.209Z,14.70
2023-09-22T05:44:39.407Z,14.30
2023-09-22T05:47:13.956Z,15.60
2023-09-22T05:49:43.975Z,13.40
2023-09-22T05:52:21.486Z,13.50
2023-09-22T05:54:51.961Z,12.20
2023-09-22T05:57:20.239Z,13.50
2023-09-22T05:59:48.553Z,13.60
2023-09-22T06:02:15.599Z,13.60
2023-09-22T06:04:42.629Z,13.50
2023-09-22T06:07:13.984Z,13.50
2023-09-22T06:09:41.361Z,13.50
2023-09-22T06:12:08.498Z,13.60
2023-09-22T06:14:35.709Z,13.60
2023-09-22T06:17:02.781Z,14.60
2023-09-22T06:19:29.785Z,13.70
2023-09-22T06:21:56.745Z,13.70
2023-09-22T06:24:24.020Z,14.70
2023-09-22T06:26:51.908Z,16.10
2023-09-22T06:29:19.430Z,14.10
2023-09-22T06:31:46.549Z,15.90
2023-09-22T06:34:14.791Z,14.10
2023-09-22T06:36:41.767Z,15.50
2023-09-22T06:39:10.803Z,15.70
2023-09-22T06:41:37.952Z,14.30
2023-09-22T06:44:05.487Z,15.20
2023-09-22T06:46:37.311Z,14.40
2023-09-22T06:49:06.474Z,15.70
2023-09-22T06:51:34.909Z,14.50
2023-09-22T06:54:02.781Z,14.60
2023-09-22T06:56:43.196Z,16.10
2023-09-22T06:59:14.687Z,14.80
2023-09-22T07:01:41.966Z,14.90
2023-09-22T07:04:11.006Z,16.40
2023-09-22T07:06:38.492Z,16.50
2023-09-22T07:09:10.877Z,15.70
2023-09-22T07:11:41.401Z,15.30
2023-09-22T07:14:09.649Z,15.50
2023-09-22T07:16:37.996Z,16.40
2023-09-22T07:19:05.373Z,16.20
2023-09-22T07:21:32.397Z,17.60
2023-09-22T07:23:59.549Z,17.30
2023-09-22T07:26:27.747Z,16.80
2023-09-22T07:28:56.159Z,17.60
2023-09-22T07:31:23.203Z,17.40
2023-09-22T07:33:50.372Z,16.10
2023-09-22T07:36:17.734Z,16.20
2023-09-22T07:38:45.938Z,16.70
2023-09-22T07:41:13.366Z,17.50
2023-09-22T07:43:40.420Z,16.30
2023-09-22T07:46:09.074Z,16.40
2023-09-22T07:48:37.876Z,17.80
2023-09-22T07:51:06.034Z,16.60
2023-09-22T07:53:34.471Z,16.60
2023-09-22T07:56:01.670Z,18.20
2023-09-22T07:58:30.866Z,15.80
2023-09-22T08:01:01.149Z,18.00
2023-09-22T08:03:28.954Z,17.00
2023-09-22T08:05:56.247Z,18.60
2023-09-22T08:08:26.067Z,17.60
2023-09-22T08:10:54.726Z,19.00
2023-09-22T08:13:23.068Z,17.90
2023-09-22T08:15:50.866Z,17.50
2023-09-22T08:18:18.500Z,17.60
2023-09-22T08:20:45.585Z,17.70
2023-09-22T08:23:12.549Z,19.80
2023-09-22T08:25:39.782Z,19.30
2023-09-22T08:28:06.959Z,18.10
2023-09-22T08:30:34.159Z,18.20
2023-09-22T08:33:01.485Z,19.00
2023-09-22T08:35:29.027Z,18.60
2023-09-22T08:37:56.837Z,18.70
2023-09-22T08:40:23.974Z,19.30
2023-09-22T08:42:53.066Z,19.00
2023-09-22T08:45:22.244Z,19.10
2023-09-22T08:47:50.880Z,19.20
2023-09-22T08:50:21.981Z,20.10
2023-09-22T08:52:52.620Z,19.50
2023-09-22T08:55:22.747Z,19.80
2023-09-22T08:57:53.126Z,19.90
2023-09-22T09:00:28.502Z,20.00
2023-09-22T09:03:06.588Z,20.80
2023-09-22T09:05:34.513Z,20.20
2023-09-22T09:08:18.631Z,20.20
2023-09-22T09:10:51.347Z,20.10
2023-09-22T09:13:21.555Z,20.00
2023-09-22T09:15:51.378Z,19.90
2023-09-22T09:18:21.583Z,19.70
2023-09-22T09:21:16.101Z,19.60
2023-09-22T09:24:00.447Z,19.40
2023-09-22T09:26:34.050Z,19.30
2023-09-22T09:29:01.324Z,19.10
2023-09-22T09:31:49.099Z,19.10
2023-09-22T09:34:17.795Z,19.10
2023-09-22T09:36:44.996Z,20.40
2023-09-22T09:39:13.705Z,19.20
2023-09-22T09:41:44.882Z,19.20
2023-09-22T09:44:12.614Z,19.60
2023-09-22T09:46:43.543Z,19.20
2023-09-22T09:49:15.052Z,19.20
2023-09-22T09:51:48.412Z,19.20
2023-09-22T09:54:21.108Z,19.60
2023-09-22T09:56:51.407Z,20.50
2023-09-22T09:59:21.839Z,19.90
2023-09-22T10:01:49.753Z,20.60
2023-09-22T10:04:22.091Z,21.00
2023-09-22T10:06:53.065Z,20.40
2023-09-22T10:09:20.402Z,20.60
2023-09-22T10:11:49.607Z,20.90
2023-09-22T10:14:47.894Z,20.90
2023-09-22T10:17:23.231Z,21.10
2023-09-22T10:19:50.713Z,21.20
2023-09-22T10:22:17.832Z,21.30
2023-09-22T10:24:47.417Z,22.20
2023-09-22T10:27:19.068Z,21.50
2023-09-22T10:29:53.009Z,21.60
2023-09-22T10:32:26.721Z,21.70
2023-09-22T10:34:55.141Z,21.70
2023-09-22T10:37:30.975Z,21.70
2023-09-22T10:40:17.806Z,21.60
2023-09-22T10:42:54.090Z,21.40
2023-09-22T10:45:26.667Z,21.30
2023-09-22T10:47:54.194Z,21.10
2023-09-22T10:50:32.794Z,21.10
2023-09-22T10:53:05.744Z,21.10
2023-09-22T10:55:42.455Z,21.20
2023-09-22T10:58:18.090Z,21.40
2023-09-22T11:01:03.063Z,21.70
2023-09-22T11:03:30.696Z,21.90
2023-09-22T11:06:04.967Z,22.40
2023-09-22T11:08:32.940Z,22.50
2023-09-22T11:11:00.397Z,22.70
2023-09-22T11:13:29.772Z,23.00
2023-09-22T11:16:03.510Z,23.20
2023-09-22T11:18:36.795Z,23.40
2023-09-22T11:21:09.146Z,23.50
2023-09-22T11:23:39.545Z,23.70
2023-09-22T11:26:10.467Z,23.80
2023-09-22T11:28:45.650Z,24.00
2023-09-22T11:31:18.413Z,24.20
2023-09-22T11:33:59.388Z,24.20
2023-09-22T11:36:27.358Z,24.30
2023-09-22T11:38:55.918Z,24.20
2023-09-22T11:41:24.780Z,24.20
2023-09-22T11:43:53.455Z,24.20
2023-09-22T11:46:29.895Z,24.30
2023-09-22T11:49:07.093Z,24.50
2023-09-22T11:51:57.231Z,24.50
2023-09-22T11:54:27.613Z,24.60
2023-09-22T11:56:58.642Z,24.70
2023-09-22T11:59:34.971Z,24.70
2023-09-22T12:02:06.645Z,24.80
2023-09-22T12:04:39.153Z,24.70
2023-09-22T12:07:07.452Z,24.70
2023-09-22T12:09:34.414Z,24.80
2023-09-22T12:12:01.942Z,24.50
2023-09-22T12:14:28.964Z,24.30
2023-09-22T12:16:56.672Z,24.10
2023-09-22T12:19:27.229Z,24.00
2023-09-22T12:21:54.375Z,23.70
2023-09-22T12:24:21.377Z,23.60
2023-09-22T12:26:48.432Z,23.50
2023-09-22T12:29:17.437Z,23.40
2023-09-22T12:31:46.101Z,23.30
2023-09-22T12:34:13.851Z,24.60
2023-09-22T12:36:42.156Z,23.50
2023-09-22T12:39:12.061Z,23.20
2023-09-22T12:41:39.437Z,23.20
2023-09-22T12:44:06.707Z,23.10
2023-09-22T12:46:33.851Z,23.10
2023-09-22T12:49:01.218Z,23.10
2023-09-22T12:51:29.051Z,23.10
2023-09-22T12:53:56.588Z,23.10
2023-09-22T12:56:23.828Z,23.10
2023-09-22T12:58:50.892Z,23.10
2023-09-22T13:01:18.055Z,23.10
2023-09-22T13:03:46.903Z,23.10
2023-09-22T13:06:15.469Z,23.00
2023-09-22T13:08:42.530Z,23.00
2023-09-22T13:11:09.964Z,23.00
2023-09-22T13:13:37.275Z,23.00
2023-09-22T13:16:04.633Z,23.00
2023-09-22T13:18:32.479Z,22.90
2023-09-22T13:20:59.920Z,22.90
2023-09-22T13:23:27.061Z,22.90
2023-09-22T13:25:55.989Z,22.90
2023-09-22T13:28:23.310Z,22.90
2023-09-22T13:30:56.285Z,22.90
2023-09-22T13:33:24.648Z,22.90
2023-09-22T13:35:52.216Z,22.80
2023-09-22T13:38:20.415Z,22.70
2023-09-22T13:40:51.690Z,22.70
2023-09-22T13:43:19.575Z,22.70
2023-09-22T13:45:46.825Z,22.60
2023-09-22T13:48:16.002Z,22.60
2023-09-22T13:50:43.234Z,22.50
2023-09-22T13:53:11.504Z,22.40
2023-09-22T13:55:40.099Z,23.30
2023-09-22T13:58:08.225Z,23.60
2023-09-22T14:00:35.623Z,22.40
2023-09-22T14:03:04.396Z,22.40
2023-09-22T14:05:33.483Z,22.40
2023-09-22T14:08:00.966Z,22.40
2023-09-22T14:10:29.020Z,22.50
2023-09-22T14:12:57.249Z,22.50
2023-09-22T14:15:24.551Z,22.50
2023-09-22T14:17:52.689Z,22.60
2023-09-22T14:20:23.592Z,23.20
2023-09-22T14:22:51.843Z,22.60
2023-09-22T14:25:19.891Z,22.60
2023-09-22T14:27:47.312Z,22.60
2023-09-22T14:30:14.523Z,22.50
2023-09-22T14:32:43.152Z,22.40
2023-09-22T14:35:11.069Z,22.20
2023-09-22T14:37:38.387Z,22.10
2023-09-22T14:40:06.808Z,21.90
2023-09-22T14:42:35.177Z,21.70
2023-09-22T14:45:02.381Z,20.00
2023-09-22T14:47:30.134Z,21.90
2023-09-22T14:49:57.521Z,20.20
2023-09-22T14:52:24.659Z,20.90
2023-09-22T14:54:51.586Z,20.70
2023-09-22T14:57:18.587Z,20.60
2023-09-22T14:59:45.762Z,20.50
2023-09-22T15:02:13.894Z,20.40
2023-09-22T15:04:42.258Z,20.30
2023-09-22T15:07:09.254Z,20.20
2023-09-22T15:09:36.526Z,20.10
2023-09-22T15:12:04.104Z,20.00
2023-09-22T15:14:31.074Z,20.00
2023-09-22T15:16:58.725Z,19.90
2023-09-22T15:19:27.126Z,21.00
2023-09-22T15:21:54.154Z,19.70
2023-09-22T15:24:21.448Z,19.60
2023-09-22T15:26:48.799Z,20.10
2023-09-22T15:29:15.978Z,19.30
2023-09-22T15:31:43.110Z,19.30
2023-09-22T15:34:10.074Z,19.20
2023-09-22T15:36:37.258Z,20.00
2023-09-22T15:39:06.017Z,19.30
2023-09-22T15:41:34.094Z,19.00
2023-09-22T15:44:03.356Z,18.90
2023-09-22T15:46:31.920Z,20.30
2023-09-22T15:48:59.304Z,18.90
2023-09-22T15:51:27.667Z,18.00
2023-09-22T15:53:57.016Z,18.70
2023-09-22T15:56:24.077Z,18.60
2023-09-22T15:58:51.255Z,18.70
2023-09-22T16:01:18.509Z,18.60
2023-09-22T16:03:45.813Z,18.70
2023-09-22T16:06:13.030Z,18.70
2023-09-22T16:08:41.354Z,18.70
2023-09-22T16:11:12.472Z,18.80
2023-09-22T16:13:40.200Z,18.80
2023-09-22T16:16:07.862Z,20.90
2023-09-22T16:18:34.863Z,18.90
2023-09-22T16:21:06.591Z,19.10
2023-09-22T16:23:34.566Z,19.60
2023-09-22T16:26:09.704Z,19.20
2023-09-22T16:28:38.497Z,19.20
2023-09-22T16:31:07.626Z,19.20
2023-09-22T16:33:36.226Z,19.20
2023-09-22T16:36:06.415Z,19.30
2023-09-22T16:38:35.673Z,19.20
2023-09-22T16:41:07.014Z,19.10
2023-09-22T16:43:34.189Z,19.00
2023-09-22T16:46:01.164Z,19.00
2023-09-22T16:48:28.300Z,19.90
2023-09-22T16:50:55.430Z,18.70
2023-09-22T16:53:23.089Z,18.60
2023-09-22T16:55:51.028Z,19.20
2023-09-22T16:58:21.480Z,20.00
2023-09-22T17:00:52.406Z,18.30
2023-09-22T17:03:19.955Z,18.30
2023-09-22T17:05:50.959Z,18.00
2023-09-22T17:08:18.131Z,18.70
2023-09-22T17:10:45.181Z,17.90
2023-09-22T17:13:12.241Z,17.80
2023-09-22T17:15:42.952Z,17.70
2023-09-22T17:18:14.358Z,17.70
2023-09-22T17:20:42.324Z,19.20
2023-09-22T17:23:13.026Z,18.40
2023-09-22T17:25:40.096Z,17.50
2023-09-22T17:28:09.799Z,17.40
2023-09-22T17:30:38.919Z,17.60
2023-09-22T17:33:11.202Z,19.30
2023-09-22T17:35:38.239Z,17.40
2023-09-22T17:38:05.290Z,17.30
2023-09-22T17:40:32.608Z,18.70
2023-09-22T17:42:59.634Z,17.90
2023-09-22T17:45:26.879Z,17.30
2023-09-22T17:47:53.824Z,17.20
2023-09-22T17:50:20.777Z,19.40
2023-09-22T17:52:48.824Z,17.10
2023-09-22T17:55:16.113Z,17.10
2023-09-22T17:57:43.272Z,17.00
2023-09-22T18:00:10.736Z,17.00
2023-09-22T18:02:41.526Z,16.90
2023-09-22T18:05:09.362Z,17.60
2023-09-22T18:07:36.718Z,16.70
2023-09-22T18:10:04.604Z,17.90
2023-09-22T18:12:31.688Z,16.40
2023-09-22T18:14:58.703Z,16.20
2023-09-22T18:17:25.792Z,15.80
2023-09-22T18:19:53.145Z,15.70
2023-09-22T18:22:20.277Z,15.60
2023-09-22T18:24:47.454Z,16.40
2023-09-22T18:27:14.460Z,17.20
2023-09-22T18:29:41.648Z,16.70
2023-09-22T18:32:08.853Z,15.00
2023-09-22T18:34:36.180Z,15.20
2023-09-22T18:37:03.479Z,15.80
2023-09-22T18:39:30.575Z,15.30
2023-09-22T18:41:58.519Z,14.90
2023-09-22T18:44:25.626Z,16.50
2023-09-22T18:46:54.127Z,14.70
2023-09-22T18:49:23.500Z,14.70
2023-09-22T18:51:50.559Z,14.70
2023-09-22T18:54:17.564Z,14.60
2023-09-22T18:56:44.749Z,14.50
2023-09-22T18:59:12.062Z,14.50
2023-09-22T19:01:39.430Z,15.20
2023-09-22T19:04:06.806Z,15.20
2023-09-22T19:06:34.052Z,14.40
2023-09-22T19:09:01.486Z,15.50
2023-09-22T19:11:28.626Z,15.50
2023-09-22T19:13:56.088Z,14.70
2023-09-22T19:16:23.392Z,14.30
2023-09-22T19:18:50.534Z,15.20
2023-09-22T19:21:26.206Z,14.80
2023-09-22T19:23:55.464Z,14.30
2023-09-22T19:26:22.984Z,15.30
2023-09-22T19:28:50.145Z,16.30
2023-09-22T19:31:17.266Z,14.30
2023-09-22T19:33:46.334Z,14.30
2023-09-22T19:36:13.541Z,15.60
2023-09-22T19:38:40.853Z,15.40
2023-09-22T19:41:12.613Z,15.30
2023-09-22T19:43:39.783Z,15.90
2023-09-22T19:46:06.837Z,15.90
2023-09-22T19:48:34.161Z,15.10
2023-09-22T19:51:01.909Z,14.20
2023-09-22T19:53:29.193Z,14.20
2023-09-22T19:55:56.457Z,13.50
2023-09-22T19:58:27.168Z,14.20
2023-09-22T20:00:55.246Z,16.30
2023-09-22T20:03:23.675Z,14.20
2023-09-22T20:05:52.369Z,14.20
2023-09-22T20:08:20.316Z,14.20
2023-09-22T20:10:49.481Z,14.60
2023-09-22T20:13:16.918Z,14.10
2023-09-22T20:15:49.105Z,14.10
2023-09-22T20:18:16.689Z,15.60
2023-09-22T20:20:43.905Z,14.10
2023-09-22T20:23:11.240Z,14.10
2023-09-22T20:25:40.797Z,14.00
2023-09-22T20:28:07.862Z,15.40
2023-09-22T20:30:47.435Z,14.50
2023-09-22T20:33:15.215Z,12.30
2023-09-22T20:35:42.325Z,14.10
2023-09-22T20:38:09.646Z,14.00
2023-09-22T20:40:37.266Z,14.00
2023-09-22T20:43:04.810Z,14.00
2023-09-22T20:45:32.031Z,14.00
2023-09-22T20:48:04.534Z,14.00
2023-09-22T20:50:34.374Z,15.50
2023-09-22T20:53:05.101Z,14.00
2023-09-22T20:55:40.284Z,14.10
2023-09-22T20:58:09.963Z,15.00
2023-09-22T21:00:41.722Z,14.00
2023-09-22T21:03:09.936Z,14.00
2023-09-22T21:05:40.432Z,14.00
2023-09-22T21:08:08.969Z,15.10
2023-09-22T21:10:36.803Z,14.00
2023-09-22T21:13:06.384Z,14.50
2023-09-22T21:19:37.564Z,13.50
2023-09-22T21:22:18.020Z,13.80
2023-09-22T21:24:45.112Z,14.20
2023-09-22T21:24:55.866Z,13.90
2023-09-22T21:27:12.092Z,15.10
2023-09-22T21:29:39.358Z,14.00
2023-09-22T21:32:07.183Z,15.40
2023-09-22T21:34:36.120Z,14.70
2023-09-22T21:37:03.111Z,14.10
2023-09-22T21:39:30.727Z,14.10
2023-09-22T21:41:57.789Z,14.10
2023-09-22T21:44:27.037Z,14.10
2023-09-22T21:46:54.275Z,14.50
2023-09-22T21:49:21.339Z,14.10
2023-09-22T21:51:48.450Z,15.40
2023-09-22T21:54:16.820Z,14.10
2023-09-22T21:56:44.117Z,14.10
2023-09-22T21:59:11.204Z,14.10
2023-09-22T22:01:38.637Z,15.60
2023-09-22T22:04:05.923Z,14.30
2023-09-22T22:06:43.460Z,14.20
2023-09-22T22:09:16.198Z,14.40
2023-09-22T22:11:43.259Z,14.40
2023-09-22T22:14:14.369Z,14.60
2023-09-22T22:16:42.671Z,13.90
2023-09-22T22:19:10.226Z,13.90
2023-09-22T22:21:38.065Z,15.40
2023-09-22T22:24:06.445Z,15.60
2023-09-22T22:26:34.245Z,13.90
2023-09-22T22:29:01.574Z,14.10
2023-09-22T22:31:28.729Z,16.10
2023-09-22T22:33:55.928Z,13.80
2023-09-22T22:36:25.140Z,13.80
2023-09-22T22:38:52.200Z,13.80
2023-09-22T22:41:19.235Z,13.70
2023-09-22T22:43:46.484Z,15.10
2023-09-22T22:46:13.903Z,15.70
2023-09-22T22:48:41.158Z,13.40
2023-09-22T22:51:08.257Z,13.50
2023-09-22T22:53:36.581Z,13.70
2023-09-22T22:56:04.046Z,13.20
2023-09-22T22:58:32.929Z,13.10
2023-09-22T23:01:00.236Z,15.00
2023-09-22T23:03:30.690Z,12.90
2023-09-22T23:05:58.503Z,12.80
2023-09-22T23:08:26.179Z,12.70
2023-09-22T23:11:06.868Z,12.70
2023-09-22T23:13:47.363Z,12.60
2023-09-22T23:16:16.429Z,12.50
2023-09-22T23:18:45.887Z,13.50
2023-09-22T23:21:15.882Z,14.20
2023-09-22T23:23:44.162Z,13.10
2023-09-22T23:26:11.611Z,12.30
2023-09-22T23:28:43.287Z,13.20
2023-09-22T23:31:11.226Z,12.20
2023-09-22T23:33:39.821Z,12.20
2023-09-22T23:36:07.534Z,12.20
2023-09-22T23:38:34.774Z,12.20
2023-09-22T23:41:07.846Z,12.30
2023-09-22T23:43:35.812Z,12.10
2023-09-22T23:46:02.830Z,12.20
2023-09-22T23:48:32.904Z,12.70
2023-09-22T23:51:03.368Z,14.20
2023-09-22T23:53:37.068Z,12.10
2023-09-22T23:56:05.443Z,13.10
2023-09-22T23:58:32.653Z,12.10
